createdAt,value
2023-04-30T00:00:23.215Z,16.67
2023-04-30T00:03:25.030Z,15.23
2023-04-30T00:06:28.381Z,15.13
2023-04-30T00:09:30.231Z,13.27
2023-04-30T00:12:31.816Z,14.10
2023-04-30T00:15:33.523Z,13.40
2023-04-30T00:18:35.224Z,12.07
2023-04-30T00:21:36.869Z,14.23
2023-04-30T00:24:38.574Z,12.98
2023-04-30T00:27:41.124Z,14.70
2023-04-30T00:30:42.780Z,14.90
2023-04-30T00:33:44.636Z,13.30
2023-04-30T00:36:46.329Z,13.02
2023-04-30T00:39:47.984Z,13.35
2023-04-30T00:42:49.901Z,13.18
2023-04-30T00:45:51.669Z,14.75
2023-04-30T00:48:53.472Z,13.80
2023-04-30T00:51:55.285Z,13.95
2023-04-30T00:54:57.037Z,14.70
2023-04-30T00:58:00.105Z,14.82
2023-04-30T01:01:03.621Z,13.10
2023-04-30T01:04:05.876Z,14.60
2023-04-30T01:07:07.582Z,14.07
2023-04-30T01:10:09.625Z,12.60
2023-04-30T01:13:20.317Z,12.40
2023-04-30T01:16:33.356Z,14.50
2023-04-30T01:19:43.295Z,13.07
2023-04-30T01:23:23.696Z,11.32
2023-04-30T01:27:02.690Z,12.45
2023-04-30T01:30:06.047Z,12.30
2023-04-30T01:33:07.940Z,13.25
2023-04-30T01:36:18.639Z,11.33
2023-04-30T01:39:29.353Z,12.93
2023-04-30T01:42:36.531Z,13.13
2023-04-30T01:45:57.118Z,13.43
2023-04-30T01:49:05.751Z,13.65
2023-04-30T01:52:18.954Z,12.80
2023-04-30T01:55:23.301Z,11.45
2023-04-30T01:58:25.800Z,12.25
2023-04-30T02:01:32.572Z,11.98
2023-04-30T02:04:34.426Z,11.00
2023-04-30T02:07:44.365Z,10.80
2023-04-30T02:10:46.063Z,12.73
2023-04-30T02:13:47.724Z,9.63
2023-04-30T02:16:49.316Z,10.90
2023-04-30T02:19:51.143Z,11.38
2023-04-30T02:22:53.103Z,12.63
2023-04-30T02:25:54.691Z,12.63
2023-04-30T02:28:56.662Z,11.18
2023-04-30T02:31:59.489Z,11.27
2023-04-30T02:35:01.617Z,12.63
2023-04-30T02:38:03.285Z,11.13
2023-04-30T02:41:05.048Z,12.30
2023-04-30T02:44:06.730Z,12.10
2023-04-30T02:47:08.372Z,13.30
2023-04-30T02:50:10.437Z,14.68
2023-04-30T02:53:12.285Z,11.70
2023-04-30T02:56:13.950Z,12.43
2023-04-30T02:59:15.608Z,13.00
2023-04-30T03:02:21.150Z,11.88
2023-04-30T03:05:23.864Z,12.18
2023-04-30T03:08:26.457Z,13.20
2023-04-30T03:11:28.076Z,12.27
2023-04-30T03:14:30.429Z,12.60
2023-04-30T03:17:32.092Z,12.02
2023-04-30T03:20:33.833Z,12.38
2023-04-30T03:23:35.692Z,11.30
2023-04-30T03:26:37.417Z,12.48
2023-04-30T03:29:39.035Z,12.70
2023-04-30T03:32:40.834Z,12.80
2023-04-30T03:35:42.649Z,14.13
2023-04-30T03:38:44.643Z,17.90
2023-04-30T03:41:46.293Z,14.75
2023-04-30T03:44:48.066Z,15.48
2023-04-30T03:47:49.732Z,17.98
2023-04-30T03:50:51.524Z,15.45
2023-04-30T03:53:53.152Z,15.93
2023-04-30T03:56:54.806Z,15.65
2023-04-30T03:59:56.781Z,18.17
2023-04-30T04:02:59.575Z,17.80
2023-04-30T04:06:01.359Z,17.30
2023-04-30T04:09:04.450Z,18.00
2023-04-30T04:12:06.351Z,18.75
2023-04-30T04:15:08.853Z,19.10
2023-04-30T04:18:10.821Z,20.30
2023-04-30T04:21:13.038Z,20.95
2023-04-30T04:24:14.756Z,20.10
2023-04-30T04:27:16.452Z,22.27
2023-04-30T04:30:18.526Z,20.80
2023-04-30T04:33:20.130Z,21.85
2023-04-30T04:36:22.566Z,20.80
2023-04-30T04:39:24.207Z,19.47
2023-04-30T04:42:26.285Z,20.92
2023-04-30T04:45:27.937Z,21.48
2023-04-30T04:48:29.578Z,20.23
2023-04-30T04:51:33.065Z,21.10
2023-04-30T04:54:34.819Z,19.37
2023-04-30T04:57:36.696Z,20.02
2023-04-30T05:00:39.360Z,19.88
2023-04-30T05:03:41.866Z,21.45
2023-04-30T05:06:43.795Z,22.25
2023-04-30T05:09:49.231Z,20.00
2023-04-30T05:12:50.981Z,19.35
2023-04-30T05:15:53.768Z,22.73
2023-04-30T05:18:55.482Z,23.52
2023-04-30T05:21:57.129Z,20.65
2023-04-30T05:24:58.814Z,20.10
2023-04-30T05:28:00.541Z,20.70
2023-04-30T05:31:02.207Z,19.58
2023-04-30T05:34:03.957Z,17.55
2023-04-30T05:37:05.702Z,17.45
2023-04-30T05:40:08.148Z,18.37
2023-04-30T05:43:10.014Z,17.83
2023-04-30T05:46:11.643Z,14.90
2023-04-30T05:49:13.249Z,14.77
2023-04-30T05:52:17.262Z,15.70
2023-04-30T05:55:18.860Z,14.63
2023-04-30T05:58:20.537Z,15.75
2023-04-30T06:01:23.223Z,14.43
2023-04-30T06:04:24.993Z,14.65
2023-04-30T06:07:26.712Z,14.30
2023-04-30T06:10:28.466Z,12.87
2023-04-30T06:13:30.125Z,14.25
2023-04-30T06:16:31.943Z,13.93
2023-04-30T06:19:33.580Z,12.38
2023-04-30T06:22:35.770Z,14.70
2023-04-30T06:25:37.531Z,13.10
2023-04-30T06:28:39.121Z,12.70
2023-04-30T06:31:40.868Z,12.93
2023-04-30T06:34:42.501Z,11.73
2023-04-30T06:37:44.123Z,11.32
2023-04-30T06:40:45.936Z,13.00
2023-04-30T06:43:47.578Z,11.68
2023-04-30T06:46:49.164Z,13.70
2023-04-30T06:49:50.811Z,11.70
2023-04-30T06:52:52.546Z,12.77
2023-04-30T06:55:54.873Z,10.70
2023-04-30T06:58:56.545Z,11.48
2023-04-30T07:01:58.305Z,11.45
2023-04-30T07:04:59.951Z,11.73
2023-04-30T07:08:02.232Z,10.63
2023-04-30T07:11:04.024Z,11.47
2023-04-30T07:14:05.770Z,10.07
2023-04-30T07:17:07.550Z,9.82
2023-04-30T07:20:09.766Z,9.65
2023-04-30T07:23:11.457Z,9.82
2023-04-30T07:26:13.104Z,9.80
2023-04-30T07:29:14.869Z,9.82
2023-04-30T07:32:16.530Z,9.23
2023-04-30T07:35:18.220Z,9.32
2023-04-30T07:38:19.998Z,8.85
2023-04-30T07:41:21.918Z,9.13
2023-04-30T07:44:23.700Z,8.32
2023-04-30T07:47:25.862Z,8.13
2023-04-30T07:50:29.721Z,9.25
2023-04-30T07:53:31.360Z,8.75
2023-04-30T07:56:33.007Z,8.23
2023-04-30T07:59:34.654Z,7.97
2023-04-30T08:02:37.556Z,8.38
2023-04-30T08:05:39.450Z,8.32
2023-04-30T08:08:41.048Z,8.00
2023-04-30T08:11:42.676Z,8.30
2023-04-30T08:14:44.429Z,7.78
2023-04-30T08:17:46.419Z,7.80
2023-04-30T08:20:49.682Z,7.05
2023-04-30T08:23:51.623Z,6.30
2023-04-30T08:26:54.780Z,6.30
2023-04-30T08:29:56.742Z,6.03
2023-04-30T08:32:59.278Z,6.38
2023-04-30T08:36:01.166Z,6.07
2023-04-30T08:39:02.816Z,5.80
2023-04-30T08:42:10.242Z,8.83
2023-04-30T08:45:13.061Z,5.88
2023-04-30T08:48:16.648Z,5.57
2023-04-30T08:51:18.714Z,6.35
2023-04-30T08:54:21.164Z,5.78
2023-04-30T08:57:22.777Z,5.70
2023-04-30T09:00:24.477Z,5.72
2023-04-30T09:03:26.991Z,5.60
2023-04-30T09:06:28.919Z,5.40
2023-04-30T09:09:37.281Z,5.60
2023-04-30T09:12:39.992Z,6.07
2023-04-30T09:15:41.948Z,6.20
2023-04-30T09:18:43.675Z,6.72
2023-04-30T09:21:45.404Z,5.53
2023-04-30T09:24:49.340Z,4.90
2023-04-30T09:28:11.436Z,5.33
2023-04-30T09:31:20.924Z,4.85
2023-04-30T09:34:35.654Z,5.20
2023-04-30T09:37:40.851Z,5.00
2023-04-30T09:40:46.004Z,6.07
2023-04-30T09:43:47.601Z,5.30
2023-04-30T09:46:51.107Z,5.60
2023-04-30T09:49:53.406Z,5.13
2023-04-30T09:53:06.718Z,5.28
2023-04-30T09:56:09.324Z,5.93
2023-04-30T09:59:12.948Z,5.93
2023-04-30T10:02:17.320Z,5.00
2023-04-30T10:05:19.548Z,5.28
2023-04-30T10:08:31.642Z,6.00
2023-04-30T10:11:35.804Z,5.30
2023-04-30T10:14:37.957Z,4.53
2023-04-30T10:17:41.614Z,4.35
2023-04-30T10:20:46.632Z,5.78
2023-04-30T10:23:48.466Z,6.15
2023-04-30T10:26:50.598Z,5.45
2023-04-30T10:29:53.964Z,5.20
2023-04-30T10:32:55.795Z,5.90
2023-04-30T10:36:00.348Z,5.32
2023-04-30T10:39:02.545Z,4.60
2023-04-30T10:42:06.366Z,5.65
2023-04-30T10:45:10.696Z,4.80
2023-04-30T10:48:15.557Z,4.53
2023-04-30T10:51:17.829Z,4.70
2023-04-30T10:54:34.766Z,5.25
2023-04-30T10:57:43.828Z,4.85
2023-04-30T11:00:59.993Z,5.10
2023-04-30T11:04:11.848Z,5.05
2023-04-30T11:07:13.703Z,4.90
2023-04-30T11:10:16.545Z,5.00
2023-04-30T11:13:18.202Z,4.60
2023-04-30T11:16:20.332Z,4.70
2023-04-30T11:19:23.102Z,5.30
2023-04-30T11:22:25.331Z,4.88
2023-04-30T11:25:39.854Z,5.72
2023-04-30T11:28:52.306Z,4.35
2023-04-30T11:31:56.194Z,4.87
2023-04-30T11:34:58.569Z,5.55
2023-04-30T11:38:00.609Z,4.97
2023-04-30T11:41:03.622Z,5.10
2023-04-30T11:44:22.928Z,5.47
2023-04-30T11:47:24.570Z,5.33
2023-04-30T11:50:32.774Z,4.57
2023-04-30T11:53:34.424Z,5.30
2023-04-30T11:56:39.557Z,4.80
2023-04-30T11:59:43.912Z,4.30
2023-04-30T12:02:48.284Z,5.23
2023-04-30T12:05:51.007Z,4.70
2023-04-30T12:08:55.014Z,5.32
2023-04-30T12:11:56.628Z,4.30
2023-04-30T12:14:58.310Z,4.57
2023-04-30T12:18:00.520Z,4.63
2023-04-30T12:21:04.392Z,4.03
2023-04-30T12:24:07.208Z,4.60
2023-04-30T12:27:08.932Z,4.00
2023-04-30T12:30:10.897Z,4.20
2023-04-30T12:33:12.613Z,5.23
2023-04-30T12:36:14.191Z,4.20
2023-04-30T12:39:16.426Z,4.13
2023-04-30T12:42:21.290Z,4.25
2023-04-30T12:45:52.244Z,4.70
2023-04-30T12:48:54.879Z,4.53
2023-04-30T12:52:01.348Z,3.80
2023-04-30T12:55:19.661Z,4.05
2023-04-30T12:58:21.500Z,4.60
2023-04-30T13:01:24.492Z,5.57
2023-04-30T13:04:26.916Z,4.03
2023-04-30T13:07:38.561Z,4.80
2023-04-30T13:10:40.329Z,5.18
2023-04-30T13:13:42.287Z,4.72
2023-04-30T13:16:44.126Z,3.47
2023-04-30T13:19:45.742Z,4.97
2023-04-30T13:22:47.481Z,4.55
2023-04-30T13:25:49.106Z,5.32
2023-04-30T13:28:51.207Z,4.97
2023-04-30T13:31:53.014Z,4.15
2023-04-30T13:34:56.123Z,4.27
2023-04-30T13:37:59.718Z,3.92
2023-04-30T13:41:01.313Z,3.40
2023-04-30T13:44:03.117Z,4.20
2023-04-30T13:47:04.724Z,5.10
2023-04-30T13:50:08.762Z,3.93
2023-04-30T13:53:12.518Z,3.85
2023-04-30T13:56:15.539Z,3.13
2023-04-30T13:59:18.522Z,5.32
2023-04-30T14:02:20.278Z,3.60
2023-04-30T14:05:21.985Z,4.00
2023-04-30T14:08:23.854Z,4.15
2023-04-30T14:11:27.438Z,3.60
2023-04-30T14:14:31.898Z,3.85
2023-04-30T14:17:33.590Z,3.25
2023-04-30T14:20:35.660Z,3.80
2023-04-30T14:23:38.821Z,3.55
2023-04-30T14:26:43.237Z,4.15
2023-04-30T14:29:45.379Z,3.95
2023-04-30T14:32:47.087Z,3.22
2023-04-30T14:35:48.820Z,3.63
2023-04-30T14:38:50.652Z,3.50
2023-04-30T14:41:53.456Z,3.65
2023-04-30T14:44:55.295Z,3.10
2023-04-30T14:47:56.954Z,3.58
2023-04-30T14:50:58.649Z,3.87
2023-04-30T14:54:02.262Z,3.47
2023-04-30T14:57:04.177Z,3.58
2023-04-30T15:00:06.853Z,3.92
2023-04-30T15:03:08.800Z,3.80
2023-04-30T15:06:10.953Z,3.47
2023-04-30T15:09:13.835Z,4.25
2023-04-30T15:12:15.485Z,3.75
2023-04-30T15:15:18.922Z,4.50
2023-04-30T15:18:20.816Z,3.15
2023-04-30T15:21:22.438Z,4.10
2023-04-30T15:24:24.076Z,5.78
2023-04-30T15:27:28.075Z,6.45
2023-04-30T15:30:30.545Z,5.63
2023-04-30T15:33:32.524Z,5.35
2023-04-30T15:36:34.139Z,5.27
2023-04-30T15:39:35.799Z,6.18
2023-04-30T15:42:38.309Z,5.45
2023-04-30T15:45:40.387Z,5.63
2023-04-30T15:48:42.088Z,5.90
2023-04-30T15:51:45.143Z,5.27
2023-04-30T15:54:46.840Z,5.50
2023-04-30T15:57:48.557Z,6.78
2023-04-30T16:00:50.162Z,5.30
2023-04-30T16:03:52.222Z,5.88
2023-04-30T16:06:55.155Z,5.13
2023-04-30T16:09:58.907Z,5.90
2023-04-30T16:13:00.574Z,5.72
2023-04-30T16:16:02.819Z,6.03
2023-04-30T16:19:04.986Z,5.90
2023-04-30T16:22:09.107Z,6.30
2023-04-30T16:25:11.061Z,5.70
2023-04-30T16:28:12.686Z,4.78
2023-04-30T16:31:15.681Z,5.22
2023-04-30T16:34:17.321Z,5.10
2023-04-30T16:37:19.047Z,5.20
2023-04-30T16:40:21.499Z,5.00
2023-04-30T16:43:23.072Z,5.15
2023-04-30T16:46:24.901Z,6.07
2023-04-30T16:49:26.685Z,5.40
2023-04-30T16:52:28.660Z,5.17
2023-04-30T16:55:31.675Z,5.65
2023-04-30T16:58:33.301Z,4.90
2023-04-30T17:01:35.065Z,5.00
2023-04-30T17:04:36.711Z,5.50
2023-04-30T17:07:38.431Z,5.30
2023-04-30T17:10:40.171Z,5.32
2023-04-30T17:13:41.775Z,5.30
2023-04-30T17:16:44.864Z,6.07
2023-04-30T17:19:46.546Z,6.43
2023-04-30T17:22:48.122Z,6.83
2023-04-30T17:25:49.738Z,6.15
2023-04-30T17:28:51.481Z,6.30
2023-04-30T17:31:53.189Z,5.93
2023-04-30T17:34:54.899Z,5.53
2023-04-30T17:37:56.550Z,6.50
2023-04-30T17:40:58.169Z,7.35
2023-04-30T17:43:59.840Z,7.30
2023-04-30T17:47:01.523Z,6.32
2023-04-30T17:50:04.941Z,6.72
2023-04-30T17:53:06.625Z,7.10
2023-04-30T17:56:09.584Z,6.35
2023-04-30T17:59:11.214Z,7.30
2023-04-30T18:02:12.832Z,6.95
2023-04-30T18:05:14.813Z,6.38
2023-04-30T18:08:18.359Z,6.57
2023-04-30T18:11:20.131Z,6.85
2023-04-30T18:14:21.823Z,6.72
2023-04-30T18:17:23.465Z,6.88
2023-04-30T18:20:25.158Z,6.68
2023-04-30T18:23:26.786Z,7.30
2023-04-30T18:26:28.446Z,7.53
2023-04-30T18:29:30.090Z,7.38
2023-04-30T18:32:31.768Z,7.10
2023-04-30T18:35:34.424Z,7.70
2023-04-30T18:38:36.216Z,8.33
2023-04-30T18:41:38.087Z,8.93
2023-04-30T18:44:39.676Z,8.25
2023-04-30T18:47:41.772Z,9.73
2023-04-30T18:50:43.489Z,8.43
2023-04-30T18:53:47.554Z,9.17
2023-04-30T18:56:49.520Z,11.02
2023-04-30T18:59:51.173Z,9.98
2023-04-30T19:02:52.906Z,10.10
2023-04-30T19:05:58.667Z,11.30
2023-04-30T19:09:00.753Z,9.43
2023-04-30T19:12:03.639Z,9.80
2023-04-30T19:15:08.122Z,8.95
2023-04-30T19:18:12.772Z,9.32
2023-04-30T19:21:14.921Z,9.13
2023-04-30T19:24:16.533Z,9.67
2023-04-30T19:27:18.564Z,9.38
2023-04-30T19:30:20.232Z,11.23
2023-04-30T19:33:22.849Z,9.93
2023-04-30T19:36:24.577Z,10.05
2023-04-30T19:39:31.457Z,10.27
2023-04-30T19:42:33.480Z,10.15
2023-04-30T19:45:35.054Z,13.18
2023-04-30T19:48:36.692Z,9.55
2023-04-30T19:51:38.504Z,11.38
2023-04-30T19:54:40.372Z,10.03
2023-04-30T19:57:41.949Z,10.18
2023-04-30T20:00:45.029Z,10.57
2023-04-30T20:03:47.018Z,9.85
2023-04-30T20:06:51.842Z,9.15
2023-04-30T20:09:53.829Z,9.30
2023-04-30T20:12:56.120Z,9.80
2023-04-30T20:15:58.220Z,9.60
2023-04-30T20:18:59.933Z,10.75
2023-04-30T20:22:03.009Z,10.30
2023-04-30T20:25:06.529Z,10.73
2023-04-30T20:28:08.301Z,11.00
2023-04-30T20:31:10.013Z,10.38
2023-04-30T20:34:11.855Z,9.75
2023-04-30T20:37:13.865Z,11.38
2023-04-30T20:40:15.745Z,10.50
2023-04-30T20:43:17.342Z,10.68
2023-04-30T20:46:19.070Z,9.93
2023-04-30T20:49:20.672Z,9.48
2023-04-30T20:52:22.283Z,9.75
2023-04-30T20:55:23.941Z,10.10
2023-04-30T20:58:27.116Z,10.75
2023-04-30T21:01:28.842Z,11.93
2023-04-30T21:04:31.144Z,10.30
2023-04-30T21:07:34.493Z,11.15
2023-04-30T21:10:37.009Z,11.30
2023-04-30T21:13:38.875Z,10.63
2023-04-30T21:16:43.902Z,10.32
2023-04-30T21:19:46.310Z,9.82
2023-04-30T21:22:47.938Z,10.77
2023-04-30T21:25:54.367Z,9.30
2023-04-30T21:28:55.964Z,10.80
2023-04-30T21:31:58.455Z,10.40
2023-04-30T21:35:00.144Z,10.38
2023-04-30T21:38:01.774Z,9.68
2023-04-30T21:41:03.712Z,9.40
2023-04-30T21:44:05.343Z,9.82
2023-04-30T21:47:10.551Z,10.40
2023-04-30T21:50:12.373Z,8.88
2023-04-30T21:53:14.027Z,9.15
2023-04-30T21:56:16.353Z,11.57
2023-04-30T21:59:18.195Z,11.77
2023-04-30T22:02:24.300Z,10.30
2023-04-30T22:05:26.133Z,10.20
2023-04-30T22:08:28.220Z,11.35
2023-04-30T22:11:29.873Z,9.77
2023-04-30T22:14:31.461Z,9.82
2023-04-30T22:17:34.447Z,11.77
2023-04-30T22:20:36.362Z,9.45
2023-04-30T22:23:37.974Z,11.20
2023-04-30T22:26:39.555Z,10.37
2023-04-30T22:29:42.656Z,11.18
2023-04-30T22:32:44.416Z,10.48
2023-04-30T22:35:46.869Z,10.32
2023-04-30T22:38:48.580Z,10.48
2023-04-30T22:41:50.754Z,9.83
2023-04-30T22:44:52.744Z,10.18
2023-04-30T22:47:54.597Z,11.73
2023-04-30T22:50:57.902Z,10.13
2023-04-30T22:53:59.576Z,9.80
2023-04-30T22:57:01.787Z,10.97
2023-04-30T23:00:05.263Z,12.32
2023-04-30T23:03:07.256Z,10.85
2023-04-30T23:06:08.927Z,13.50
2023-04-30T23:09:12.374Z,10.65
2023-04-30T23:12:13.950Z,9.40
2023-04-30T23:15:15.559Z,10.88
2023-04-30T23:18:17.736Z,10.50
2023-04-30T23:21:19.452Z,10.10
2023-04-30T23:24:21.176Z,10.65
2023-04-30T23:27:24.100Z,9.47
2023-04-30T23:30:25.899Z,10.25
2023-04-30T23:33:27.801Z,10.48
2023-04-30T23:36:29.396Z,10.93
2023-04-30T23:39:31.026Z,9.65
2023-04-30T23:42:32.612Z,11.97
2023-04-30T23:45:35.051Z,9.70
2023-04-30T23:48:36.657Z,10.05
2023-04-30T23:51:38.395Z,9.20
2023-04-30T23:54:40.243Z,9.45
2023-04-30T23:57:42.636Z,10.37
